Kirby, Texas
Current Conditions -  °F | °C
As of 7:51 AM on Sunday 23 Nov 2014 (Local Time) from KSAT Reporting Station
Clear Clear  
Wind Chill: 55°   Ceiling: Unl
Heat Index: 55°   Visibility: 10mi
Dew Point: 51°   Wind: 8mph
Humidity: 86%   Direction: 280°W
Pressure: 29.71"   Gusts: NA
Location:  29.4397°N, 98.3901°W
Report Text: KSAT 231351Z 28007KT 10SM CLR 13/11 A2971 RMK AO2 SLP047 T01280106
Loading
Personal Weather Stations






























Interactive Weather Map New forecast layout! Learn more

10-Day Weather Forecast

Advertisements
Track Severe Weather on mobile